Time;durP1;ratioP1;P1;durP2;ratioP2;P2;SDS_P1;SDS_P2;PMS_P1;PMS_P2;Temp;Humidity;BMP_temperature;BMP_pressure;BME280_temperature;BME280_humidity;BME280_pressure;Samples;Min_cycle;Max_cycle;Signal;HPM_P1;HPM_P2
2022/07/21 00:02:05;;;;;;;17.25;8.38;;;;;;;;;;4933219;28;20038;-73
2022/07/21 00:04:31;;;;;;;19.98;8.77;;;;;;;;;;4932721;28;20884;-72
2022/07/21 00:06:56;;;;;;;22.50;9.10;;;;;;;;;;4933011;28;22165;-71
2022/07/21 00:09:22;;;;;;;19.63;10.23;;;;;;;;;;4932753;28;20122;-72
2022/07/21 00:11:47;;;;;;;18.40;9.70;;;;;;;;;;4938372;28;20042;-73
2022/07/21 00:14:15;;;;;;;23.05;10.15;;;;;;;;;;4932318;28;20938;-70
2022/07/21 00:16:41;;;;;;;17.42;9.75;;;;;;;;;;4933960;28;20042;-73
2022/07/21 00:19:09;;;;;;;18.63;10.32;;;;;;;;;;4932115;28;20164;-73
2022/07/21 00:21:36;;;;;;;21.33;10.15;;;;;;;;;;4933060;28;20030;-73
2022/07/21 00:24:03;;;;;;;20.65;11.05;;;;;;;;;;4932271;28;20039;-73
2022/07/21 00:26:31;;;;;;;20.45;10.43;;;;;;;;;;4936202;28;20031;-74
2022/07/21 00:28:57;;;;;;;20.25;10.20;;;;;;;;;;4934309;28;20479;-74
2022/07/21 00:31:22;;;;;;;26.52;12.40;;;;;;;;;;4936951;28;20046;-73
2022/07/21 00:33:50;;;;;;;23.33;12.13;;;;;;;;;;4946941;28;20192;-73
2022/07/21 00:36:16;;;;;;;21.42;11.77;;;;;;;;;;4931234;28;20041;-73
2022/07/21 00:38:43;;;;;;;29.20;13.15;;;;;;;;;;4933015;28;20031;-72
2022/07/21 00:41:09;;;;;;;25.30;13.35;;;;;;;;;;4933106;28;20042;-72
2022/07/21 00:43:34;;;;;;;24.58;12.63;;;;;;;;;;4932381;28;20168;-72
2022/07/21 00:46:00;;;;;;;26.15;13.93;;;;;;;;;;4932821;28;20037;-72
2022/07/21 00:48:25;;;;;;;25.20;14.23;;;;;;;;;;4933099;28;20042;-73
2022/07/21 00:50:52;;;;;;;24.25;15.05;;;;;;;;;;4931746;28;20121;-73
2022/07/21 00:53:17;;;;;;;27.67;15.63;;;;;;;;;;4934996;28;20053;-72
2022/07/21 00:55:43;;;;;;;29.35;16.55;;;;;;;;;;4932274;28;20074;-72
2022/07/21 00:58:13;;;;;;;26.27;16.25;;;;;;;;;;4932156;28;20045;-72
2022/07/21 01:00:39;;;;;;;26.33;15.68;;;;;;;;;;4946503;28;20045;-73
2022/07/21 01:03:04;;;;;;;29.33;17.60;;;;;;;;;;4932323;28;21250;-72
2022/07/21 01:05:29;;;;;;;30.10;18.67;;;;;;;;;;4932117;28;20066;-73
2022/07/21 01:07:55;;;;;;;29.98;18.23;;;;;;;;;;4931194;28;20518;-73
2022/07/21 01:10:22;;;;;;;32.17;18.98;;;;;;;;;;4931564;28;20129;-73
2022/07/21 01:12:47;;;;;;;29.50;19.98;;;;;;;;;;4932699;28;20050;-73
2022/07/21 01:15:14;;;;;;;34.08;20.75;;;;;;;;;;4932321;28;20129;-73
2022/07/21 01:17:40;;;;;;;34.78;20.85;;;;;;;;;;4932356;28;20043;-73
2022/07/21 01:20:06;;;;;;;31.45;23.45;;;;;;;;;;4931909;28;20046;-73
2022/07/21 01:22:33;;;;;;;44.80;31.83;;;;;;;;;;4931954;28;20852;-72
2022/07/21 01:24:58;;;;;;;40.40;29.15;;;;;;;;;;4931953;28;20034;-73
2022/07/21 01:27:26;;;;;;;41.95;32.95;;;;;;;;;;4931839;28;20154;-73
2022/07/21 01:29:51;;;;;;;39.17;29.85;;;;;;;;;;4933563;28;20170;-73
2022/07/21 01:32:16;;;;;;;39.90;34.50;;;;;;;;;;4935660;28;20043;-72
2022/07/21 01:34:41;;;;;;;38.92;32.58;;;;;;;;;;4934439;28;20049;-73
2022/07/21 01:37:07;;;;;;;46.28;40.00;;;;;;;;;;4931721;28;20709;-73
2022/07/21 01:42:16;;;;;;;53.45;44.13;;;;;;;;;;4931314;28;20042;-73
2022/07/21 01:44:42;;;;;;;51.00;43.00;;;;;;;;;;4931316;28;20113;-73
2022/07/21 01:47:08;;;;;;;45.50;38.95;;;;;;;;;;4930499;28;20123;-73
2022/07/21 01:49:33;;;;;;;40.88;34.78;;;;;;;;;;4935642;28;20756;-73
2022/07/21 01:51:58;;;;;;;45.15;37.92;;;;;;;;;;4931092;28;20142;-72
2022/07/21 01:54:23;;;;;;;45.38;37.35;;;;;;;;;;4931472;28;20832;-73
2022/07/21 01:56:49;;;;;;;47.90;38.15;;;;;;;;;;4929769;28;20038;-73
2022/07/21 01:59:14;;;;;;;49.20;40.47;;;;;;;;;;4930322;28;20037;-73
2022/07/21 02:01:41;;;;;;;45.13;37.22;;;;;;;;;;4931529;28;20046;-73
2022/07/21 02:04:09;;;;;;;45.80;37.85;;;;;;;;;;4913024;28;20133;-73
2022/07/21 02:06:34;;;;;;;44.03;35.80;;;;;;;;;;4930723;28;20815;-73
2022/07/21 02:09:03;;;;;;;44.70;35.88;;;;;;;;;;4930947;28;20058;-71
2022/07/21 02:11:28;;;;;;;42.40;34.40;;;;;;;;;;4944444;28;20152;-73
2022/07/21 02:13:54;;;;;;;39.05;32.22;;;;;;;;;;4932066;28;20042;-73
2022/07/21 02:16:19;;;;;;;45.85;36.72;;;;;;;;;;4930900;28;20136;-73
2022/07/21 02:18:45;;;;;;;44.25;36.28;;;;;;;;;;4930561;28;20145;-72
2022/07/21 02:21:10;;;;;;;43.85;36.40;;;;;;;;;;4944659;28;20097;-73
2022/07/21 02:23:36;;;;;;;44.20;36.30;;;;;;;;;;4931175;28;20096;-73
2022/07/21 02:26:01;;;;;;;47.33;36.85;;;;;;;;;;4930169;28;20045;-73
2022/07/21 02:28:29;;;;;;;45.22;37.20;;;;;;;;;;4930869;28;20057;-66
2022/07/21 02:30:55;;;;;;;56.00;46.45;;;;;;;;;;4931054;28;20116;-63
2022/07/21 02:33:24;;;;;;;50.42;42.25;;;;;;;;;;4933112;28;20148;-64
2022/07/21 02:35:50;;;;;;;50.40;39.03;;;;;;;;;;4940200;28;20166;-64
2022/07/21 02:38:15;;;;;;;42.92;34.67;;;;;;;;;;4932712;28;20035;-64
2022/07/21 02:40:43;;;;;;;42.33;35.42;;;;;;;;;;4945796;28;20035;-64
2022/07/21 02:43:11;;;;;;;42.10;33.53;;;;;;;;;;4946902;28;20043;-64
2022/07/21 02:45:41;;;;;;;41.25;33.75;;;;;;;;;;4933544;28;20030;-64
2022/07/21 02:48:07;;;;;;;51.38;39.22;;;;;;;;;;4933342;28;20042;-65
2022/07/21 02:50:34;;;;;;;49.30;38.75;;;;;;;;;;4937630;28;20046;-63
2022/07/21 02:53:01;;;;;;;48.97;38.83;;;;;;;;;;4932562;28;20043;-63
2022/07/21 02:55:27;;;;;;;48.03;36.05;;;;;;;;;;4932728;28;20038;-63
2022/07/21 02:58:03;;;;;;;49.30;37.58;;;;;;;;;;4933964;28;20646;-64
2022/07/21 03:00:30;;;;;;;48.65;38.22;;;;;;;;;;4929338;28;20035;-63
2022/07/21 03:02:58;;;;;;;46.28;37.50;;;;;;;;;;4932917;28;20145;-65
2022/07/21 03:05:23;;;;;;;46.05;34.85;;;;;;;;;;4940072;28;20031;-65
2022/07/21 03:07:51;;;;;;;51.10;38.30;;;;;;;;;;4932521;28;20030;-64
2022/07/21 03:10:16;;;;;;;48.13;37.70;;;;;;;;;;4933232;28;20039;-63
2022/07/21 03:12:41;;;;;;;52.65;39.67;;;;;;;;;;4936624;28;20050;-63
2022/07/21 03:15:07;;;;;;;48.85;37.33;;;;;;;;;;4933293;28;20177;-63
2022/07/21 03:17:33;;;;;;;48.38;38.25;;;;;;;;;;4932460;28;20035;-63
2022/07/21 03:19:58;;;;;;;50.67;39.03;;;;;;;;;;4932942;28;20180;-62
2022/07/21 03:22:25;;;;;;;62.53;42.40;;;;;;;;;;4915624;28;20035;-62
2022/07/21 03:24:51;;;;;;;57.75;39.33;;;;;;;;;;4936098;28;20487;-62
2022/07/21 03:27:19;;;;;;;55.63;39.30;;;;;;;;;;4932264;28;20035;-62
2022/07/21 03:29:45;;;;;;;49.70;38.85;;;;;;;;;;4931987;28;20043;-63
2022/07/21 03:32:10;;;;;;;50.80;39.45;;;;;;;;;;4946911;28;20073;-62
2022/07/21 03:34:35;;;;;;;55.83;41.03;;;;;;;;;;4935748;28;20046;-62
2022/07/21 03:37:03;;;;;;;55.40;39.97;;;;;;;;;;4935992;28;20043;-62
2022/07/21 03:39:28;;;;;;;51.05;37.63;;;;;;;;;;4934209;28;21758;-63
2022/07/21 03:41:56;;;;;;;62.83;43.45;;;;;;;;;;4936281;28;20038;-63
2022/07/21 03:44:21;;;;;;;65.13;43.50;;;;;;;;;;4935864;28;20057;-62
2022/07/21 03:46:47;;;;;;;65.90;42.75;;;;;;;;;;4948934;28;20341;-63
2022/07/21 03:49:12;;;;;;;72.55;46.65;;;;;;;;;;4949776;28;20030;-63
2022/07/21 03:51:37;;;;;;;79.40;47.95;;;;;;;;;;4935887;28;20066;-63
2022/07/21 03:54:02;;;;;;;63.97;41.35;;;;;;;;;;4935536;28;20732;-63
2022/07/21 03:56:28;;;;;;;64.15;40.63;;;;;;;;;;4935854;28;20026;-63
2022/07/21 03:58:54;;;;;;;58.13;40.08;;;;;;;;;;4935769;28;20547;-64
2022/07/21 04:01:19;;;;;;;64.10;41.42;;;;;;;;;;4935558;28;20125;-64
2022/07/21 04:03:45;;;;;;;72.38;44.70;;;;;;;;;;4935561;28;20121;-64
2022/07/21 04:06:10;;;;;;;66.47;43.90;;;;;;;;;;4932925;28;20146;-63
2022/07/21 04:08:41;;;;;;;72.32;44.63;;;;;;;;;;4935661;28;20237;-64
2022/07/21 04:11:06;;;;;;;64.65;42.45;;;;;;;;;;4935713;28;20038;-64
2022/07/21 04:13:31;;;;;;;65.10;42.65;;;;;;;;;;4933280;28;20058;-64
2022/07/21 04:15:57;;;;;;;71.57;44.08;;;;;;;;;;4936463;28;20034;-63
2022/07/21 04:18:25;;;;;;;70.40;44.45;;;;;;;;;;4934607;28;20042;-63
2022/07/21 04:20:50;;;;;;;60.33;42.60;;;;;;;;;;4933677;28;20058;-64
2022/07/21 04:23:18;;;;;;;59.00;40.67;;;;;;;;;;4935168;28;20027;-62
2022/07/21 04:25:43;;;;;;;56.88;39.72;;;;;;;;;;4936013;28;20830;-68
2022/07/21 04:28:11;;;;;;;57.22;40.22;;;;;;;;;;4935563;28;20035;-69
2022/07/21 04:30:36;;;;;;;55.22;40.25;;;;;;;;;;4935620;28;20082;-68
2022/07/21 04:33:01;;;;;;;54.42;40.90;;;;;;;;;;4933938;28;20046;-69
2022/07/21 04:35:27;;;;;;;57.90;44.20;;;;;;;;;;4932257;28;20054;-69
2022/07/21 04:37:52;;;;;;;54.67;41.95;;;;;;;;;;4934957;28;20999;-69
2022/07/21 04:40:17;;;;;;;54.13;40.25;;;;;;;;;;4949901;28;20033;-69
2022/07/21 04:42:43;;;;;;;51.70;39.63;;;;;;;;;;4934287;28;20117;-68
2022/07/21 04:45:09;;;;;;;52.40;37.08;;;;;;;;;;4934846;28;20066;-69
2022/07/21 04:47:47;;;;;;;50.17;39.60;;;;;;;;;;4938275;28;20030;-69
2022/07/21 04:50:13;;;;;;;59.42;43.60;;;;;;;;;;4939406;28;20839;-68
2022/07/21 04:52:39;;;;;;;62.70;42.15;;;;;;;;;;4934803;28;20043;-69
2022/07/21 04:55:07;;;;;;;59.33;41.88;;;;;;;;;;4934221;28;20031;-67
2022/07/21 04:57:36;;;;;;;59.05;42.58;;;;;;;;;;4932496;28;20033;-68
2022/07/21 05:00:03;;;;;;;64.50;42.55;;;;;;;;;;4933671;28;20038;-69
2022/07/21 05:02:29;;;;;;;51.55;33.55;;;;;;;;;;4934851;28;20117;-68
2022/07/21 05:04:56;;;;;;;52.03;31.45;;;;;;;;;;4948702;28;20045;-68
2022/07/21 05:07:22;;;;;;;53.15;28.52;;;;;;;;;;4947805;28;20042;-69
2022/07/21 05:09:49;;;;;;;52.72;29.35;;;;;;;;;;4933798;28;20039;-68
2022/07/21 05:12:17;;;;;;;50.05;30.40;;;;;;;;;;4935011;28;20035;-68
2022/07/21 05:14:42;;;;;;;57.55;31.70;;;;;;;;;;4932810;28;20742;-68
2022/07/21 05:17:07;;;;;;;54.38;30.73;;;;;;;;;;4934685;28;20074;-68
2022/07/21 05:19:33;;;;;;;49.28;30.40;;;;;;;;;;4932513;28;20201;-66
2022/07/21 05:21:58;;;;;;;56.60;33.80;;;;;;;;;;4933909;28;20680;-66
2022/07/21 05:24:23;;;;;;;59.25;35.97;;;;;;;;;;4948109;28;20093;-66
2022/07/21 05:26:48;;;;;;;52.95;32.70;;;;;;;;;;4934279;28;20039;-66
2022/07/21 05:29:14;;;;;;;61.38;35.38;;;;;;;;;;4934325;28;20209;-66
2022/07/21 05:31:39;;;;;;;61.22;37.90;;;;;;;;;;4931885;28;20083;-66
2022/07/21 05:34:04;;;;;;;52.35;31.88;;;;;;;;;;4932226;28;20069;-66
2022/07/21 05:36:29;;;;;;;64.57;37.30;;;;;;;;;;4947797;28;20066;-65
2022/07/21 05:38:55;;;;;;;73.35;37.60;;;;;;;;;;4933661;28;21000;-65
2022/07/21 05:41:21;;;;;;;55.28;32.13;;;;;;;;;;4933261;28;20031;-65
2022/07/21 05:43:46;;;;;;;55.72;33.35;;;;;;;;;;4948350;28;20786;-66
2022/07/21 05:46:11;;;;;;;62.22;36.45;;;;;;;;;;4933226;28;20030;-64
2022/07/21 05:48:37;;;;;;;51.80;33.10;;;;;;;;;;4931429;28;20118;-65
2022/07/21 05:51:04;;;;;;;56.03;33.95;;;;;;;;;;4934227;28;20046;-65
2022/07/21 05:53:32;;;;;;;59.95;34.03;;;;;;;;;;4939170;28;20788;-65
2022/07/21 05:55:58;;;;;;;58.92;34.55;;;;;;;;;;4932562;28;20039;-64
2022/07/21 05:58:25;;;;;;;52.65;32.13;;;;;;;;;;4934056;28;20090;-65
2022/07/21 06:01:12;;;;;;;53.80;33.13;;;;;;;;;;4932954;28;20067;-66
2022/07/21 06:03:41;;;;;;;60.03;32.95;;;;;;;;;;4932340;28;20031;-66
2022/07/21 06:06:07;;;;;;;61.13;35.80;;;;;;;;;;4946698;28;20522;-65
2022/07/21 06:08:33;;;;;;;52.75;31.52;;;;;;;;;;4933761;28;20035;-66
2022/07/21 06:11:00;;;;;;;58.97;32.90;;;;;;;;;;4933119;28;20121;-67
2022/07/21 06:13:28;;;;;;;52.00;32.92;;;;;;;;;;4946622;28;22384;-65
2022/07/21 06:15:54;;;;;;;52.13;32.00;;;;;;;;;;4933189;28;21627;-66
2022/07/21 06:18:19;;;;;;;53.40;31.60;;;;;;;;;;4932314;28;20053;-66
2022/07/21 06:20:45;;;;;;;52.40;31.77;;;;;;;;;;4933133;28;20157;-66
2022/07/21 06:23:10;;;;;;;57.00;33.10;;;;;;;;;;4932962;28;20071;-66
2022/07/21 06:25:36;;;;;;;51.38;30.92;;;;;;;;;;4932586;28;20035;-66
2022/07/21 06:28:01;;;;;;;53.70;32.80;;;;;;;;;;4932987;28;20617;-66
2022/07/21 06:30:27;;;;;;;45.67;29.67;;;;;;;;;;4932485;28;20058;-66
2022/07/21 06:32:52;;;;;;;48.92;30.02;;;;;;;;;;4931201;28;20668;-65
2022/07/21 06:35:18;;;;;;;37.65;26.30;;;;;;;;;;4946953;28;20686;-66
2022/07/21 06:37:46;;;;;;;39.45;28.65;;;;;;;;;;4946120;28;20070;-66
2022/07/21 06:40:12;;;;;;;43.25;28.25;;;;;;;;;;4932234;28;20038;-66
2022/07/21 06:42:37;;;;;;;46.25;28.15;;;;;;;;;;4933771;28;20097;-66
2022/07/21 06:45:03;;;;;;;45.25;27.75;;;;;;;;;;4932020;28;21071;-66
2022/07/21 06:47:28;;;;;;;44.55;27.75;;;;;;;;;;4946757;28;20117;-66
2022/07/21 06:50:02;;;;;;;40.20;26.25;;;;;;;;;;4932589;28;20039;-69
2022/07/21 06:52:27;;;;;;;44.30;26.75;;;;;;;;;;4933001;28;20043;-66
2022/07/21 06:54:55;;;;;;;40.90;25.15;;;;;;;;;;4930500;28;20204;-67
2022/07/21 06:57:20;;;;;;;39.15;24.92;;;;;;;;;;4934450;28;20043;-66
2022/07/21 06:59:46;;;;;;;31.15;23.60;;;;;;;;;;4938624;28;20046;-67
2022/07/21 07:02:11;;;;;;;38.28;25.05;;;;;;;;;;4934097;28;20053;-67
2022/07/21 07:04:36;;;;;;;33.85;22.55;;;;;;;;;;4944182;28;20035;-66
2022/07/21 07:07:02;;;;;;;37.17;24.42;;;;;;;;;;4928416;28;20150;-67
2022/07/21 07:09:27;;;;;;;36.42;24.98;;;;;;;;;;4937335;28;20296;-67
2022/07/21 07:12:02;;;;;;;40.00;26.13;;;;;;;;;;4946700;28;20328;-67
2022/07/21 07:14:28;;;;;;;39.30;25.23;;;;;;;;;;4933633;28;20336;-67
2022/07/21 07:16:53;;;;;;;37.85;24.52;;;;;;;;;;4932755;28;20031;-67
2022/07/21 07:19:18;;;;;;;34.95;24.50;;;;;;;;;;4933751;28;20047;-67
2022/07/21 07:21:44;;;;;;;41.55;23.83;;;;;;;;;;4937018;28;20153;-66
2022/07/21 07:24:09;;;;;;;35.40;24.10;;;;;;;;;;4936043;28;20521;-69
2022/07/21 07:26:34;;;;;;;38.47;26.42;;;;;;;;;;4934102;28;20030;-68
2022/07/21 07:28:59;;;;;;;38.53;24.42;;;;;;;;;;4938837;28;20545;-67
2022/07/21 07:31:25;;;;;;;36.55;24.85;;;;;;;;;;4933149;28;21887;-67
2022/07/21 07:33:50;;;;;;;31.52;23.42;;;;;;;;;;4932621;28;20090;-66
2022/07/21 07:36:15;;;;;;;29.58;21.02;;;;;;;;;;4920486;28;20417;-66
2022/07/21 07:38:40;;;;;;;38.10;22.80;;;;;;;;;;4935746;28;20050;-66
2022/07/21 07:41:08;;;;;;;31.13;21.92;;;;;;;;;;4922378;28;20126;-68
2022/07/21 07:43:33;;;;;;;30.55;20.90;;;;;;;;;;4934727;28;20061;-67
2022/07/21 07:46:01;;;;;;;26.77;18.10;;;;;;;;;;4938114;28;20062;-68
2022/07/21 07:48:26;;;;;;;26.63;19.60;;;;;;;;;;4935024;28;20141;-68
2022/07/21 07:50:51;;;;;;;24.05;17.23;;;;;;;;;;4947536;28;20416;-68
2022/07/21 07:53:17;;;;;;;23.73;15.32;;;;;;;;;;4937599;28;20250;-68
2022/07/21 07:55:42;;;;;;;23.40;15.50;;;;;;;;;;4933973;28;20035;-68
2022/07/21 07:58:07;;;;;;;25.65;16.45;;;;;;;;;;4936499;28;20042;-68
2022/07/21 08:00:33;;;;;;;24.20;14.23;;;;;;;;;;4935727;28;20352;-68
2022/07/21 08:02:58;;;;;;;18.30;9.82;;;;;;;;;;4936565;28;20038;-69
2022/07/21 08:05:25;;;;;;;16.23;8.77;;;;;;;;;;4936661;28;20640;-68
2022/07/21 08:07:50;;;;;;;12.63;8.50;;;;;;;;;;4934977;28;20042;-68
2022/07/21 08:10:16;;;;;;;17.67;11.63;;;;;;;;;;4937968;28;20358;-68
2022/07/21 08:12:41;;;;;;;23.08;12.65;;;;;;;;;;4952527;28;20084;-68
2022/07/21 08:15:07;;;;;;;18.48;12.82;;;;;;;;;;4938165;28;20121;-68
2022/07/21 08:17:32;;;;;;;28.75;13.98;;;;;;;;;;4935361;28;20462;-68
2022/07/21 08:19:57;;;;;;;26.38;14.23;;;;;;;;;;4941003;28;20046;-70
2022/07/21 08:22:23;;;;;;;28.08;16.08;;;;;;;;;;4943941;28;20070;-68
2022/07/21 08:24:50;;;;;;;21.65;15.30;;;;;;;;;;4943148;28;20062;-68
2022/07/21 08:27:18;;;;;;;27.65;15.98;;;;;;;;;;4940792;28;20037;-69
2022/07/21 08:29:46;;;;;;;27.20;15.88;;;;;;;;;;4944491;28;20728;-68
2022/07/21 08:32:11;;;;;;;25.42;15.40;;;;;;;;;;4944830;28;20074;-68
2022/07/21 08:34:39;;;;;;;25.45;16.67;;;;;;;;;;4940510;28;20719;-68
2022/07/21 08:37:04;;;;;;;31.10;15.63;;;;;;;;;;4943295;28;21314;-69
2022/07/21 08:39:31;;;;;;;24.30;14.88;;;;;;;;;;4940754;28;20058;-74
2022/07/21 08:41:59;;;;;;;27.00;15.40;;;;;;;;;;4939512;28;20053;-70
2022/07/21 08:44:25;;;;;;;29.23;15.95;;;;;;;;;;4936776;28;20511;-70
2022/07/21 08:46:53;;;;;;;23.92;15.48;;;;;;;;;;4939915;28;20677;-69
2022/07/21 08:49:23;;;;;;;23.15;14.45;;;;;;;;;;4935054;28;20151;-68
2022/07/21 08:51:51;;;;;;;19.92;14.07;;;;;;;;;;4935130;28;22227;-70
2022/07/21 08:54:16;;;;;;;24.67;15.25;;;;;;;;;;4934552;28;20133;-69
2022/07/21 08:56:44;;;;;;;21.83;14.65;;;;;;;;;;4936408;28;20058;-69
2022/07/21 08:59:09;;;;;;;21.73;13.95;;;;;;;;;;4939491;28;20118;-70
2022/07/21 09:01:34;;;;;;;21.10;14.30;;;;;;;;;;4937934;28;20031;-70
2022/07/21 09:04:19;;;;;;;20.10;13.95;;;;;;;;;;4933462;28;20035;-70
2022/07/21 09:06:55;;;;;;;26.52;15.70;;;;;;;;;;4935362;28;20023;-71
2022/07/21 09:09:21;;;;;;;22.98;13.20;;;;;;;;;;4938293;28;20031;-71
2022/07/21 09:11:49;;;;;;;19.35;13.27;;;;;;;;;;4933378;28;20054;-72
2022/07/21 09:14:21;;;;;;;21.23;12.57;;;;;;;;;;4930439;28;20039;-71
2022/07/21 09:16:48;;;;;;;20.40;14.27;;;;;;;;;;4931292;28;20102;-71
2022/07/21 09:19:20;;;;;;;17.48;12.55;;;;;;;;;;4935435;28;20050;-73
2022/07/21 09:21:46;;;;;;;17.67;13.15;;;;;;;;;;4936557;28;21008;-71
2022/07/21 09:24:12;;;;;;;19.17;12.25;;;;;;;;;;4931751;28;20030;-71
2022/07/21 09:27:03;;;;;;;16.65;12.63;;;;;;;;;;4931904;28;20514;-71
2022/07/21 09:29:52;;;;;;;17.77;12.30;;;;;;;;;;4932396;28;20031;-72
2022/07/21 09:32:38;;;;;;;17.75;12.82;;;;;;;;;;4930623;28;20579;-72
2022/07/21 09:35:09;;;;;;;13.45;10.68;;;;;;;;;;4932310;28;20065;-72
2022/07/21 09:37:35;;;;;;;20.75;11.40;;;;;;;;;;4929318;28;20041;-72
2022/07/21 09:40:07;;;;;;;13.35;9.57;;;;;;;;;;4933061;28;22214;-71
2022/07/21 09:42:34;;;;;;;12.07;7.55;;;;;;;;;;4929980;28;20039;-68
2022/07/21 09:45:01;;;;;;;16.35;8.60;;;;;;;;;;4931269;28;20987;-68
2022/07/21 09:47:28;;;;;;;15.68;8.43;;;;;;;;;;4932771;28;20038;-70
2022/07/21 09:49:54;;;;;;;14.68;9.38;;;;;;;;;;4938023;28;20121;-68
2022/07/21 09:52:19;;;;;;;15.27;8.77;;;;;;;;;;4931892;28;20055;-68
2022/07/21 09:54:44;;;;;;;12.85;9.55;;;;;;;;;;4932037;28;20030;-68
2022/07/21 09:57:12;;;;;;;16.00;10.05;;;;;;;;;;4931744;28;20043;-69
2022/07/21 09:59:42;;;;;;;12.88;8.50;;;;;;;;;;4931756;28;20976;-70
2022/07/21 10:02:10;;;;;;;10.93;8.30;;;;;;;;;;4930820;28;20035;-69
2022/07/21 10:04:35;;;;;;;17.33;9.27;;;;;;;;;;4931918;28;20039;-70
2022/07/21 10:07:01;;;;;;;16.35;9.52;;;;;;;;;;4931107;28;20165;-70
2022/07/21 10:09:26;;;;;;;13.90;8.80;;;;;;;;;;4932549;28;20562;-69
2022/07/21 10:11:52;;;;;;;11.07;7.95;;;;;;;;;;4929805;28;20125;-72
2022/07/21 10:14:22;;;;;;;10.00;7.07;;;;;;;;;;4931267;28;20071;-71
2022/07/21 10:16:48;;;;;;;12.27;7.32;;;;;;;;;;4944883;28;20030;-69
2022/07/21 10:19:17;;;;;;;11.38;7.50;;;;;;;;;;4947723;28;20030;-69
2022/07/21 10:22:01;;;;;;;11.77;7.70;;;;;;;;;;4952305;28;20050;-68
2022/07/21 10:24:30;;;;;;;10.57;6.85;;;;;;;;;;4944372;28;22120;-68
2022/07/21 10:27:01;;;;;;;9.60;5.88;;;;;;;;;;4941369;28;20035;-69
2022/07/21 10:29:53;;;;;;;6.85;5.47;;;;;;;;;;4941299;28;20065;-69
2022/07/21 10:32:19;;;;;;;;;;;;;;;;;;4945041;28;20309;-68
2022/07/21 10:34:45;;;;;;;9.13;4.13;;;;;;;;;;4947372;28;20017;-69
2022/07/21 10:37:25;;;;;;;5.10;3.60;;;;;;;;;;4939591;28;20030;-68
2022/07/21 10:39:50;;;;;;;6.03;3.05;;;;;;;;;;4943987;28;20518;-69
2022/07/21 10:42:16;;;;;;;7.53;3.50;;;;;;;;;;4943326;28;20034;-69
2022/07/21 10:44:43;;;;;;;4.90;2.90;;;;;;;;;;4942960;28;20030;-69
2022/07/21 10:47:23;;;;;;;7.93;3.65;;;;;;;;;;4941996;28;20941;-69
2022/07/21 10:49:48;;;;;;;7.18;3.50;;;;;;;;;;4938459;28;20045;-69
2022/07/21 10:52:33;;;;;;;7.32;3.63;;;;;;;;;;4941672;28;20051;-70
2022/07/21 10:55:10;;;;;;;6.00;4.40;;;;;;;;;;4937095;28;20547;-70
2022/07/21 10:57:42;;;;;;;9.57;7.20;;;;;;;;;;4938727;28;20495;-72
2022/07/21 11:00:33;;;;;;;12.63;7.10;;;;;;;;;;4947585;28;20095;-69
2022/07/21 11:02:59;;;;;;;11.40;7.30;;;;;;;;;;4945358;28;20948;-71
2022/07/21 11:05:26;;;;;;;12.20;7.97;;;;;;;;;;4946319;28;20029;-69
2022/07/21 11:08:08;;;;;;;13.65;8.38;;;;;;;;;;4944698;28;20034;-71
2022/07/21 11:10:35;;;;;;;11.35;8.05;;;;;;;;;;4940030;28;20038;-69
2022/07/21 11:13:00;;;;;;;14.90;7.82;;;;;;;;;;4944712;28;20053;-69
2022/07/21 11:15:45;;;;;;;13.93;8.25;;;;;;;;;;4941371;28;20039;-70
2022/07/21 11:18:12;;;;;;;14.35;7.93;;;;;;;;;;4941686;28;20035;-69
2022/07/21 11:20:40;;;;;;;12.45;7.80;;;;;;;;;;4939642;28;20783;-71
2022/07/21 11:23:07;;;;;;;12.50;7.25;;;;;;;;;;4947806;28;20045;-73
2022/07/21 11:25:36;;;;;;;13.80;7.95;;;;;;;;;;4940968;28;20031;-71
2022/07/21 11:28:03;;;;;;;18.98;8.40;;;;;;;;;;4935038;28;20045;-72
2022/07/21 11:30:31;;;;;;;14.90;8.68;;;;;;;;;;4933769;28;20035;-71
2022/07/21 11:32:56;;;;;;;20.20;10.23;;;;;;;;;;4928807;28;20058;-73
2022/07/21 11:35:21;;;;;;;18.75;11.82;;;;;;;;;;4925314;28;20062;-72
2022/07/21 11:37:49;;;;;;;23.40;11.63;;;;;;;;;;4925555;28;20896;-71
2022/07/21 11:40:16;;;;;;;23.48;11.15;;;;;;;;;;4933398;28;20117;-70
2022/07/21 11:42:43;;;;;;;19.95;10.13;;;;;;;;;;4935440;28;20035;-72
2022/07/21 11:45:09;;;;;;;19.17;10.02;;;;;;;;;;4934775;28;20057;-73
2022/07/21 11:47:36;;;;;;;21.02;10.88;;;;;;;;;;4931342;28;20035;-73
2022/07/21 11:50:04;;;;;;;25.40;12.15;;;;;;;;;;4931222;28;20106;-72
2022/07/21 11:52:30;;;;;;;23.08;11.68;;;;;;;;;;4930903;28;20042;-72
2022/07/21 11:54:57;;;;;;;29.05;12.25;;;;;;;;;;4948727;28;20034;-72
2022/07/21 11:57:23;;;;;;;26.08;13.00;;;;;;;;;;4942476;28;20038;-75
2022/07/21 11:59:49;;;;;;;30.92;13.93;;;;;;;;;;4929771;28;20045;-74
2022/07/21 12:02:15;;;;;;;23.75;13.18;;;;;;;;;;4928851;28;20030;-73
2022/07/21 12:04:45;;;;;;;22.52;12.90;;;;;;;;;;4928845;28;20093;-72
2022/07/21 12:07:21;;;;;;;22.73;13.20;;;;;;;;;;4935168;28;20038;-71
2022/07/21 12:09:51;;;;;;;20.35;12.70;;;;;;;;;;4929536;28;20049;-71
2022/07/21 12:12:27;;;;;;;15.88;11.55;;;;;;;;;;4931393;28;20042;-72
2022/07/21 12:14:53;;;;;;;18.77;11.38;;;;;;;;;;4929649;28;20057;-70
2022/07/21 12:17:33;;;;;;;24.58;11.57;;;;;;;;;;4932103;28;20554;-72
2022/07/21 12:19:58;;;;;;;18.70;10.90;;;;;;;;;;4930356;28;20039;-71
2022/07/21 12:22:53;;;;;;;23.15;12.52;;;;;;;;;;4929545;28;20443;-71
2022/07/21 12:25:32;;;;;;;20.50;13.30;;;;;;;;;;4923460;28;20050;-71
2022/07/21 12:27:57;;;;;;;19.63;13.25;;;;;;;;;;4932189;28;20045;-70
2022/07/21 12:30:30;;;;;;;20.52;12.85;;;;;;;;;;4945947;28;20364;-68
2022/07/21 12:33:00;;;;;;;19.50;13.23;;;;;;;;;;4953429;28;20043;-69
2022/07/21 12:35:29;;;;;;;24.40;14.73;;;;;;;;;;4935143;28;20093;-70
2022/07/21 12:38:01;;;;;;;19.30;11.35;;;;;;;;;;4929610;28;20151;-71
2022/07/21 12:40:28;;;;;;;22.42;11.48;;;;;;;;;;4932444;28;20038;-69
2022/07/21 12:43:22;;;;;;;20.63;10.50;;;;;;;;;;4931190;28;20038;-69
2022/07/21 12:45:52;;;;;;;19.90;10.57;;;;;;;;;;4926012;28;20390;-71
2022/07/21 12:48:19;;;;;;;17.23;10.73;;;;;;;;;;4930742;28;20434;-70
2022/07/21 12:51:01;;;;;;;19.63;11.80;;;;;;;;;;4931015;28;20038;-70
2022/07/21 12:53:27;;;;;;;19.38;11.00;;;;;;;;;;4934576;28;20046;-70
2022/07/21 12:55:52;;;;;;;26.52;12.15;;;;;;;;;;4935326;28;20421;-71
2022/07/21 12:58:18;;;;;;;27.83;12.55;;;;;;;;;;4932701;28;20714;-70
2022/07/21 13:00:43;;;;;;;26.95;11.77;;;;;;;;;;4938512;28;20046;-70
2022/07/21 13:03:09;;;;;;;28.00;13.70;;;;;;;;;;4931101;28;20042;-71
2022/07/21 13:05:36;;;;;;;29.85;14.73;;;;;;;;;;4935000;28;20083;-70
2022/07/21 13:08:04;;;;;;;34.22;3.85;;;;;;;;;;4932917;28;20046;-65
2022/07/21 13:10:30;;;;;;;23.33;3.75;;;;;;;;;;4932281;28;20121;-66
2022/07/21 13:12:55;;;;;;;23.27;2.80;;;;;;;;;;4929081;28;20094;-66
2022/07/21 13:15:20;;;;;;;24.45;3.55;;;;;;;;;;4931811;28;20578;-66
2022/07/21 13:17:46;;;;;;;13.10;2.80;;;;;;;;;;4930587;28;20694;-65
2022/07/21 13:20:14;;;;;;;26.85;3.97;;;;;;;;;;4927359;28;20081;-68
2022/07/21 13:22:42;;;;;;;28.90;3.97;;;;;;;;;;4930370;28;20046;-66
2022/07/21 13:25:08;;;;;;;21.65;2.75;;;;;;;;;;4930032;28;20137;-66
2022/07/21 13:27:34;;;;;;;28.05;3.83;;;;;;;;;;4929332;28;20808;-68
2022/07/21 13:29:59;;;;;;;22.58;3.35;;;;;;;;;;4929320;28;20080;-67
2022/07/21 13:32:25;;;;;;;23.10;3.50;;;;;;;;;;4929750;28;20054;-67
2022/07/21 13:34:50;;;;;;;25.42;4.22;;;;;;;;;;4929182;28;20035;-68
2022/07/21 13:37:18;;;;;;;27.73;3.70;;;;;;;;;;4929010;28;20062;-65
2022/07/21 13:39:43;;;;;;;15.90;2.90;;;;;;;;;;4929507;28;20058;-68
2022/07/21 13:42:09;;;;;;;21.58;2.78;;;;;;;;;;4929921;28;20038;-65
2022/07/21 13:44:34;;;;;;;14.38;2.33;;;;;;;;;;4928367;28;20566;-66
2022/07/21 13:47:00;;;;;;;23.23;3.47;;;;;;;;;;4945207;28;20425;-66
2022/07/21 13:49:28;;;;;;;23.75;3.40;;;;;;;;;;4930875;28;20753;-67
2022/07/21 13:51:53;;;;;;;21.63;3.30;;;;;;;;;;4934599;28;20125;-66
2022/07/21 13:54:19;;;;;;;26.08;3.42;;;;;;;;;;4930905;28;20169;-66
2022/07/21 13:56:49;;;;;;;23.58;3.50;;;;;;;;;;4928727;28;20169;-67
2022/07/21 13:59:17;;;;;;;19.75;2.78;;;;;;;;;;4929910;28;20042;-67
2022/07/21 14:01:42;;;;;;;17.95;2.28;;;;;;;;;;4932472;28;20265;-65
2022/07/21 14:04:11;;;;;;;19.48;2.92;;;;;;;;;;4933544;28;20075;-66
2022/07/21 14:06:36;;;;;;;16.35;2.10;;;;;;;;;;4929291;28;20047;-66
2022/07/21 14:09:02;;;;;;;14.95;2.20;;;;;;;;;;4925443;28;20030;-66
2022/07/21 14:11:30;;;;;;;14.00;2.72;;;;;;;;;;4931439;28;20034;-67
2022/07/21 14:13:55;;;;;;;14.23;2.50;;;;;;;;;;4916004;28;20062;-67
2022/07/21 14:16:21;;;;;;;25.08;3.60;;;;;;;;;;4928656;28;20034;-66
2022/07/21 14:18:46;;;;;;;21.48;3.45;;;;;;;;;;4929609;28;20035;-65
2022/07/21 14:21:12;;;;;;;27.40;3.72;;;;;;;;;;4926973;28;20869;-66
2022/07/21 14:23:37;;;;;;;14.32;2.63;;;;;;;;;;4931218;28;20168;-67
2022/07/21 14:26:05;;;;;;;16.15;2.80;;;;;;;;;;4929457;28;20089;-66